K3TE Weather Reports


Display with metric or nautical units.
time (UTC)temp
F
wind
direction
speed
MPH
gust
MPH
rain 1hr
in
rain 24hr
in
rain mn
in
humidity
%
barometer
mb
20220809221613 78 0 0.0 1.0 0.00 0.15 0.00 87 1015.2
20220809220115 79 0 0.0 3.0 0.00 0.15 0.00 86 1015.8
20220809214613 80 0 0.0 2.0 0.00 0.15 0.00 84 1015.7
20220809213204 80 0 0.0 0.0 0.00 0.15 0.00 83 1015.6
20220809211641 81 0 0.0 0.0 0.00 0.15 0.00 81 1015.4
20220809210112 81 0 0.0 1.0 0.00 0.15 0.00 80 1015.3
20220809204609 82 0 1.0 8.0 0.00 0.15 0.00 77 1015.3
20220809203147 84 0 0.0 3.0 0.00 0.15 0.00 79 1015.1
20220809201608 85 280 1.0 8.0 0.00 0.15 0.00 77 1014.9
20220809200125 86 255 1.0 7.0 0.00 0.15 0.00 77 1014.8
20220809194609 83 0 0.0 2.0 0.00 0.15 0.00 81 1015.1
20220809193111 84 0 0.0 2.0 0.00 0.15 0.00 77 1015.2
20220809191609 86 271 0.0 9.0 0.00 0.15 0.00 75 1015.1
20220809190121 87 0 1.0 11.0 0.00 0.15 0.00 75 1015.0
20220809184609 85 0 0.0 5.0 0.00 0.15 0.00 78 1015.4
20220809183108 84 67 0.0 8.0 0.00 0.15 0.00 81 1015.4
20220809181610 84 18 2.0 9.0 0.00 0.15 0.00 77 1015.8
20220809180114 84 301 3.0 6.0 0.00 0.15 0.00 78 1015.8
20220809174608 85 58 2.0 10.0 0.00 0.15 0.00 74 1015.7
20220809173111 87 0 0.0 4.0 0.00 0.15 0.00 72 1015.5
20220809171624 87 0 0.0 4.0 0.00 0.15 0.00 78 1015.5
20220809170121 87 62 1.0 5.0 0.00 0.15 0.00 74 1015.7
20220809164636 86 143 0.0 2.0 0.00 0.15 0.00 74 1015.8
20220809163113 86 205 1.0 5.0 0.00 0.15 0.00 75 1015.9
20220809161608 84 230 0.0 4.0 0.00 0.15 0.00 77 1016.0
20220809160113 85 246 1.0 6.0 0.00 0.15 0.00 77 1016.0
20220809154612 84 280 1.0 3.0 0.00 0.15 0.00 80 1016.0
20220809153115 84 207 0.0 4.0 0.00 0.15 0.00 78 1016.1
20220809151608 84 232 0.0 4.0 0.00 0.15 0.00 78 1016.2
20220809150114 85 185 1.0 5.0 0.00 0.15 0.00 75 1016.1
20220809144605 84 296 1.0 9.0 0.00 0.15 0.00 78 1016.2
20220809143113 84 250 1.0 11.0 0.00 0.15 0.00 79 1016.1
20220809141610 83 260 1.0 4.0 0.00 0.15 0.00 81 1016.1
20220809140111 83 50 0.0 4.0 0.00 0.15 0.00 84 1015.9
20220809134617 81 0 0.0 3.0 0.00 0.15 0.00 84 1015.8
20220809133111 81 349 1.0 8.0 0.00 0.15 0.00 86 1015.9
20220809131611 81 0 0.0 3.0 0.00 0.15 0.00 86 1015.8
20220809130111 80 264 0.0 3.0 0.00 0.15 0.00 88 1016.0
20220809124611 78 0 0.0 3.0 0.00 0.15 0.00 90 1015.8
20220809123110 77 136 0.0 3.0 0.00 0.15 0.00 91 1015.7
20220809121612 76 246 0.0 1.0 0.00 0.15 0.00 93 1015.7
20220809120109 75 0 0.0 1.0 0.00 0.15 0.00 96 1015.7
20220809114609 74 0 0.0 1.0 0.00 0.15 0.00 97 1015.5
20220809113117 73 191 0.0 2.0 0.00 0.15 0.00 99 1015.5
20220809111609 72 0 0.0 2.0 0.00 0.15 0.00 100 1015.4
20220809110110 71 0 0.0 3.0 0.00 0.15 0.00 100 1015.3
20220809104609 71 0 0.0 2.0 0.00 0.15 0.00 100 1015.2
20220809103110 71 0 0.0 0.0 0.00 0.15 0.00 100 1015.1
20220809101614 71 0 0.0 2.0 0.00 0.15 0.00 100 1015.0
20220809100112 71 0 0.0 0.0 0.00 0.15 0.00 100 1015.0
20220809094609 71 0 0.0 0.0 0.00 0.15 0.00 100 1015.0
20220809093111 71 0 0.0 2.0 0.00 0.15 0.00 100 1014.6
20220809091609 71 0 0.0 1.0 0.00 0.15 0.00 100 1014.8
20220809090111 71 0 0.0 0.0 0.00 0.15 0.00 100 1014.8
20220809084608 71 0 0.0 1.0 0.00 0.15 0.00 100 1014.9
20220809083114 71 0 0.0 1.0 0.00 0.15 0.00 100 1014.9
20220809081608 71 0 0.0 0.0 0.00 0.15 0.00 99 1014.8
20220809080109 71 0 0.0 0.0 0.00 0.15 0.00 99 1014.9
20220809074610 71 0 0.0 0.0 0.00 0.15 0.00 99 1014.8
20220809073108 72 0 0.0 1.0 0.00 0.15 0.00 99 1014.7
20220809071610 72 0 0.0 0.0 0.00 0.15 0.00 100 1014.6
20220809070115 72 0 0.0 1.0 0.00 0.15 0.00 99 1014.6
20220809064614 72 0 0.0 0.0 0.00 0.15 0.00 99 1014.6
20220809063111 72 0 0.0 0.0 0.00 0.15 0.00 99 1014.8
20220809061610 72 0 0.0 0.0 0.00 0.15 0.00 99 1014.8
20220809060115 72 0 0.0 0.0 0.00 0.15 0.00 99 1014.8
20220809054609 72 0 0.0 0.0 0.00 0.15 0.00 99 1015.0
20220809053108 73 0 0.0 1.0 0.00 0.15 0.00 99 1015.0
20220809051615 73 0 0.0 0.0 0.00 0.15 0.00 99 1015.3
20220809050246 73 0 0.0 0.0 0.00 0.15 0.00 99 1015.3
20220809044610 73 0 0.0 0.0 0.00 0.15 0.00 99 1015.5
20220809043114 73 0 0.0 0.0 0.02 0.15 0.00 99 1015.6
20220809041607 73 0 0.0 0.0 0.02 0.15 0.00 98 1015.7
20220809040122 73 0 0.0 0.0 0.03 0.15 0.00 98 1015.7
20220809034608 73 0 0.0 3.0 0.09 0.16 0.15 98 1015.6
20220809033107 73 169 1.0 3.0 0.12 0.14 0.13 98 1015.7
20220809031608 74 0 0.0 0.0 0.13 0.14 0.13 97 1015.6
20220809030110 74 0 1.0 3.0 0.12 0.13 0.12 96 1015.6
20220809024612 75 0 0.0 2.0 0.06 0.07 0.06 93 1015.8
20220809023112 77 0 0.0 5.0 0.01 0.02 0.01 87 1015.7
20220809021608 78 0 1.0 4.0 0.00 0.01 0.00 84 1015.8
20220809020111 79 169 1.0 6.0 0.00 0.01 0.00 82 1015.2
20220809014610 79 0 0.0 2.0 0.00 0.01 0.00 81 1015.0
20220809013110 79 0 0.0 0.0 0.00 0.01 0.00 80 1014.8
20220809011606 80 0 0.0 0.0 0.00 0.01 0.00 79 1014.9
20220809010114 80 0 0.0 0.0 0.00 0.01 0.00 78 1014.9
20220809004610 80 0 0.0 1.0 0.00 0.10 0.00 77 1015.0
20220809003108 81 0 0.0 2.0 0.00 0.10 0.00 76 1015.0
20220809001609 82 355 0.0 3.0 0.00 0.10 0.00 73 1014.9
20220809000110 83 0 0.0 4.0 0.00 0.10 0.00 71 1014.8
20220808234612 83 0 0.0 8.0 0.00 0.23 0.00 70 1014.6
20220808233109 83 147 1.0 8.0 0.00 0.23 0.00 69 1014.5
20220808231611 84 224 3.0 8.0 0.00 0.23 0.00 68 1014.5
20220808230115 85 0 0.0 11.0 0.00 0.23 0.00 68 1014.4
20220808224608 85 151 2.0 11.0 0.00 0.23 0.00 67 1014.3
20220808223112 86 165 2.0 10.0 0.00 0.23 0.00 66 1014.3